sensor_id;sensor_type;location;lat;lon;timestamp;temperature;humidity
31837;DHT22;18401;49.344;6.240;2022-12-29T00:01:54;10.00;99.90
31837;DHT22;18401;49.344;6.240;2022-12-29T00:04:20;10.10;99.90
31837;DHT22;18401;49.344;6.240;2022-12-29T00:06:46;10.00;99.90
31837;DHT22;18401;49.344;6.240;2022-12-29T00:09:14;10.00;99.90
31837;DHT22;18401;49.344;6.240;2022-12-29T00:11:41;9.90;99.90
31837;DHT22;18401;49.344;6.240;2022-12-29T00:14:09;9.90;99.90
31837;DHT22;18401;49.344;6.240;2022-12-29T00:16:53;9.90;99.90
31837;DHT22;18401;49.344;6.240;2022-12-29T00:19:19;9.90;99.90
31837;DHT22;18401;49.344;6.240;2022-12-29T00:22:03;9.90;99.90
31837;DHT22;18401;49.344;6.240;2022-12-29T00:24:48;10.00;99.90
31837;DHT22;18401;49.344;6.240;2022-12-29T00:27:26;10.00;99.90
31837;DHT22;18401;49.344;6.240;2022-12-29T00:30:17;10.00;99.90
31837;DHT22;18401;49.344;6.240;2022-12-29T00:33:12;10.00;99.90
31837;DHT22;18401;49.344;6.240;2022-12-29T00:36:01;10.00;99.90
31837;DHT22;18401;49.344;6.240;2022-12-29T00:38:28;10.10;99.90
31837;DHT22;18401;49.344;6.240;2022-12-29T00:41:13;10.10;99.90
31837;DHT22;18401;49.344;6.240;2022-12-29T00:43:57;10.10;99.90
31837;DHT22;18401;49.344;6.240;2022-12-29T00:46:33;10.10;99.90
31837;DHT22;18401;49.344;6.240;2022-12-29T00:49:00;10.10;99.90
31837;DHT22;18401;49.344;6.240;2022-12-29T00:51:44;10.10;99.90
31837;DHT22;18401;49.344;6.240;2022-12-29T00:54:10;10.10;99.90
31837;DHT22;18401;49.344;6.240;2022-12-29T00:56:36;10.00;99.90
31837;DHT22;18401;49.344;6.240;2022-12-29T00:59:03;9.90;99.90
31837;DHT22;18401;49.344;6.240;2022-12-29T01:01:29;9.80;99.90
31837;DHT22;18401;49.344;6.240;2022-12-29T01:03:55;9.70;99.90
31837;DHT22;18401;49.344;6.240;2022-12-29T01:06:21;9.70;99.90
31837;DHT22;18401;49.344;6.240;2022-12-29T01:08:46;9.70;99.90
31837;DHT22;18401;49.344;6.240;2022-12-29T01:11:32;9.70;99.90
31837;DHT22;18401;49.344;6.240;2022-12-29T01:13:58;9.70;99.90
31837;DHT22;18401;49.344;6.240;2022-12-29T01:16:23;9.70;99.90
31837;DHT22;18401;49.344;6.240;2022-12-29T01:18:49;9.60;99.90
31837;DHT22;18401;49.344;6.240;2022-12-29T01:21:14;9.60;99.90
31837;DHT22;18401;49.344;6.240;2022-12-29T01:23:40;9.60;99.90
31837;DHT22;18401;49.344;6.240;2022-12-29T01:26:14;9.60;99.90
31837;DHT22;18401;49.344;6.240;2022-12-29T01:28:40;9.60;99.90
31837;DHT22;18401;49.344;6.240;2022-12-29T01:31:08;9.60;99.90
31837;DHT22;18401;49.344;6.240;2022-12-29T01:33:33;9.60;99.90
31837;DHT22;18401;49.344;6.240;2022-12-29T01:36:03;9.60;99.90
31837;DHT22;18401;49.344;6.240;2022-12-29T01:38:29;9.60;99.90
31837;DHT22;18401;49.344;6.240;2022-12-29T01:40:55;9.50;99.90
31837;DHT22;18401;49.344;6.240;2022-12-29T01:43:21;9.60;99.90
31837;DHT22;18401;49.344;6.240;2022-12-29T01:45:54;9.60;99.90
31837;DHT22;18401;49.344;6.240;2022-12-29T01:48:20;9.70;99.90
31837;DHT22;18401;49.344;6.240;2022-12-29T01:50:50;9.80;99.90
31837;DHT22;18401;49.344;6.240;2022-12-29T01:53:28;9.80;99.90
31837;DHT22;18401;49.344;6.240;2022-12-29T01:55:57;9.80;99.90
31837;DHT22;18401;49.344;6.240;2022-12-29T01:58:28;9.80;99.90
31837;DHT22;18401;49.344;6.240;2022-12-29T02:00:55;9.90;99.90
31837;DHT22;18401;49.344;6.240;2022-12-29T02:03:22;9.90;99.90
31837;DHT22;18401;49.344;6.240;2022-12-29T02:05:57;9.90;99.90
31837;DHT22;18401;49.344;6.240;2022-12-29T02:08:26;9.90;99.90
31837;DHT22;18401;49.344;6.240;2022-12-29T02:10:54;9.90;99.90
31837;DHT22;18401;49.344;6.240;2022-12-29T02:13:20;10.10;99.90
31837;DHT22;18401;49.344;6.240;2022-12-29T02:35:57;10.40;99.90
31837;DHT22;18401;49.344;6.240;2022-12-29T02:51:51;10.80;99.90
31837;DHT22;18401;49.344;6.240;2022-12-29T02:54:19;10.80;99.90
31837;DHT22;18401;49.344;6.240;2022-12-29T02:57:12;10.80;99.90
31837;DHT22;18401;49.344;6.240;2022-12-29T02:59:40;10.80;99.90
31837;DHT22;18401;49.344;6.240;2022-12-29T03:02:09;10.90;99.90
31837;DHT22;18401;49.344;6.240;2022-12-29T03:05:17;10.90;99.90
31837;DHT22;18401;49.344;6.240;2022-12-29T03:07:56;10.80;99.90
31837;DHT22;18401;49.344;6.240;2022-12-29T03:16:22;10.90;99.90
31837;DHT22;18401;49.344;6.240;2022-12-29T03:19:02;11.00;99.90
31837;DHT22;18401;49.344;6.240;2022-12-29T03:21:31;10.90;99.90
31837;DHT22;18401;49.344;6.240;2022-12-29T03:24:19;10.80;99.90
31837;DHT22;18401;49.344;6.240;2022-12-29T03:26:48;10.70;99.90
31837;DHT22;18401;49.344;6.240;2022-12-29T03:29:16;10.70;99.90
31837;DHT22;18401;49.344;6.240;2022-12-29T03:31:44;10.90;99.90
31837;DHT22;18401;49.344;6.240;2022-12-29T03:34:11;10.90;99.90
31837;DHT22;18401;49.344;6.240;2022-12-29T03:36:53;10.80;99.90
31837;DHT22;18401;49.344;6.240;2022-12-29T03:39:22;10.70;99.90
31837;DHT22;18401;49.344;6.240;2022-12-29T03:41:52;10.70;99.90
31837;DHT22;18401;49.344;6.240;2022-12-29T03:44:20;10.70;99.90
31837;DHT22;18401;49.344;6.240;2022-12-29T03:46:46;10.70;99.90
31837;DHT22;18401;49.344;6.240;2022-12-29T03:49:12;10.90;99.90
31837;DHT22;18401;49.344;6.240;2022-12-29T03:51:37;11.00;99.90
31837;DHT22;18401;49.344;6.240;2022-12-29T03:54:03;11.20;99.90
31837;DHT22;18401;49.344;6.240;2022-12-29T03:56:29;11.20;99.90
31837;DHT22;18401;49.344;6.240;2022-12-29T03:58:54;11.30;99.90
31837;DHT22;18401;49.344;6.240;2022-12-29T04:01:20;11.30;99.90
31837;DHT22;18401;49.344;6.240;2022-12-29T04:03:46;11.20;99.90
31837;DHT22;18401;49.344;6.240;2022-12-29T04:06:11;11.30;99.90
31837;DHT22;18401;49.344;6.240;2022-12-29T04:08:37;11.30;99.90
31837;DHT22;18401;49.344;6.240;2022-12-29T04:11:02;11.30;99.90
31837;DHT22;18401;49.344;6.240;2022-12-29T04:13:28;11.30;99.90
31837;DHT22;18401;49.344;6.240;2022-12-29T04:15:54;11.20;99.90
31837;DHT22;18401;49.344;6.240;2022-12-29T04:18:20;11.20;99.90
31837;DHT22;18401;49.344;6.240;2022-12-29T04:20:45;11.30;99.90
31837;DHT22;18401;49.344;6.240;2022-12-29T04:23:28;11.20;99.90
31837;DHT22;18401;49.344;6.240;2022-12-29T04:25:54;11.30;99.90
31837;DHT22;18401;49.344;6.240;2022-12-29T04:28:20;11.30;99.90
31837;DHT22;18401;49.344;6.240;2022-12-29T04:30:46;11.20;99.90
31837;DHT22;18401;49.344;6.240;2022-12-29T04:33:13;11.30;99.90
31837;DHT22;18401;49.344;6.240;2022-12-29T04:35:39;11.20;99.90
31837;DHT22;18401;49.344;6.240;2022-12-29T04:38:04;11.20;99.90
31837;DHT22;18401;49.344;6.240;2022-12-29T04:40:30;11.20;99.90
31837;DHT22;18401;49.344;6.240;2022-12-29T04:42:56;11.20;99.90
31837;DHT22;18401;49.344;6.240;2022-12-29T04:45:22;11.10;99.90
31837;DHT22;18401;49.344;6.240;2022-12-29T04:47:47;11.00;99.90
31837;DHT22;18401;49.344;6.240;2022-12-29T04:50:13;11.00;99.90
31837;DHT22;18401;49.344;6.240;2022-12-29T04:52:39;10.90;99.90
31837;DHT22;18401;49.344;6.240;2022-12-29T04:55:05;10.80;99.90
31837;DHT22;18401;49.344;6.240;2022-12-29T04:57:31;10.80;99.90
31837;DHT22;18401;49.344;6.240;2022-12-29T04:59:57;10.70;99.90
31837;DHT22;18401;49.344;6.240;2022-12-29T05:02:23;10.60;99.90
31837;DHT22;18401;49.344;6.240;2022-12-29T05:04:48;10.60;99.90
31837;DHT22;18401;49.344;6.240;2022-12-29T05:07:14;10.60;99.90
31837;DHT22;18401;49.344;6.240;2022-12-29T05:09:40;10.50;99.90
31837;DHT22;18401;49.344;6.240;2022-12-29T05:12:05;10.60;99.90
31837;DHT22;18401;49.344;6.240;2022-12-29T05:14:32;10.70;99.90
31837;DHT22;18401;49.344;6.240;2022-12-29T05:16:57;10.80;99.90
31837;DHT22;18401;49.344;6.240;2022-12-29T05:19:23;10.80;99.90
31837;DHT22;18401;49.344;6.240;2022-12-29T05:21:49;10.80;99.90
31837;DHT22;18401;49.344;6.240;2022-12-29T05:24:15;10.90;99.90
31837;DHT22;18401;49.344;6.240;2022-12-29T05:26:41;10.90;99.90
31837;DHT22;18401;49.344;6.240;2022-12-29T05:29:07;11.00;99.90
31837;DHT22;18401;49.344;6.240;2022-12-29T05:31:33;10.90;99.90
31837;DHT22;18401;49.344;6.240;2022-12-29T05:34:01;10.90;99.90
31837;DHT22;18401;49.344;6.240;2022-12-29T05:36:26;10.80;99.90
31837;DHT22;18401;49.344;6.240;2022-12-29T05:38:52;10.70;99.90
31837;DHT22;18401;49.344;6.240;2022-12-29T05:41:18;10.50;99.90
31837;DHT22;18401;49.344;6.240;2022-12-29T05:43:44;10.50;99.90
31837;DHT22;18401;49.344;6.240;2022-12-29T05:46:09;10.40;99.90
31837;DHT22;18401;49.344;6.240;2022-12-29T05:48:35;10.30;99.90
31837;DHT22;18401;49.344;6.240;2022-12-29T05:51:01;10.30;99.90
31837;DHT22;18401;49.344;6.240;2022-12-29T05:53:27;10.20;99.90
31837;DHT22;18401;49.344;6.240;2022-12-29T05:55:52;10.10;99.90
31837;DHT22;18401;49.344;6.240;2022-12-29T05:58:18;10.10;99.90
31837;DHT22;18401;49.344;6.240;2022-12-29T06:00:44;10.00;99.90
31837;DHT22;18401;49.344;6.240;2022-12-29T06:03:10;10.00;99.90
31837;DHT22;18401;49.344;6.240;2022-12-29T06:05:36;10.10;99.90
31837;DHT22;18401;49.344;6.240;2022-12-29T06:08:02;10.10;99.90
31837;DHT22;18401;49.344;6.240;2022-12-29T06:10:28;10.10;99.90
31837;DHT22;18401;49.344;6.240;2022-12-29T06:12:53;10.00;99.90
31837;DHT22;18401;49.344;6.240;2022-12-29T06:15:19;10.00;99.90
31837;DHT22;18401;49.344;6.240;2022-12-29T06:17:45;10.00;99.90
31837;DHT22;18401;49.344;6.240;2022-12-29T06:20:11;9.90;99.90
31837;DHT22;18401;49.344;6.240;2022-12-29T06:22:37;9.90;99.90
31837;DHT22;18401;49.344;6.240;2022-12-29T06:25:03;9.90;99.90
31837;DHT22;18401;49.344;6.240;2022-12-29T06:27:29;9.90;99.90
31837;DHT22;18401;49.344;6.240;2022-12-29T06:29:55;9.80;99.90
31837;DHT22;18401;49.344;6.240;2022-12-29T06:32:21;9.80;99.90
31837;DHT22;18401;49.344;6.240;2022-12-29T06:34:46;9.80;99.90
31837;DHT22;18401;49.344;6.240;2022-12-29T06:37:12;9.80;99.90
31837;DHT22;18401;49.344;6.240;2022-12-29T06:39:38;10.00;99.90
31837;DHT22;18401;49.344;6.240;2022-12-29T06:42:04;10.00;99.90
31837;DHT22;18401;49.344;6.240;2022-12-29T06:44:30;10.00;99.90
31837;DHT22;18401;49.344;6.240;2022-12-29T06:46:56;10.10;99.90
31837;DHT22;18401;49.344;6.240;2022-12-29T06:49:22;10.20;99.90
31837;DHT22;18401;49.344;6.240;2022-12-29T06:51:48;10.30;99.90
31837;DHT22;18401;49.344;6.240;2022-12-29T06:54:14;10.30;99.90
31837;DHT22;18401;49.344;6.240;2022-12-29T06:56:39;10.50;99.90
31837;DHT22;18401;49.344;6.240;2022-12-29T06:59:05;10.40;99.90
31837;DHT22;18401;49.344;6.240;2022-12-29T07:01:31;10.50;99.90
31837;DHT22;18401;49.344;6.240;2022-12-29T07:03:56;10.50;99.90
31837;DHT22;18401;49.344;6.240;2022-12-29T07:06:23;10.50;99.90
31837;DHT22;18401;49.344;6.240;2022-12-29T07:08:48;10.50;99.90
31837;DHT22;18401;49.344;6.240;2022-12-29T07:11:14;10.50;99.90
31837;DHT22;18401;49.344;6.240;2022-12-29T07:13:40;10.60;99.90
31837;DHT22;18401;49.344;6.240;2022-12-29T07:16:08;10.70;99.90
31837;DHT22;18401;49.344;6.240;2022-12-29T07:18:34;10.80;99.90
31837;DHT22;18401;49.344;6.240;2022-12-29T07:21:00;10.80;99.90
31837;DHT22;18401;49.344;6.240;2022-12-29T07:23:25;10.80;99.90
31837;DHT22;18401;49.344;6.240;2022-12-29T07:26:02;10.80;99.90
31837;DHT22;18401;49.344;6.240;2022-12-29T07:28:28;10.90;99.90
31837;DHT22;18401;49.344;6.240;2022-12-29T07:30:54;10.90;99.90
31837;DHT22;18401;49.344;6.240;2022-12-29T07:33:19;10.80;99.90
31837;DHT22;18401;49.344;6.240;2022-12-29T07:35:45;10.90;99.90
31837;DHT22;18401;49.344;6.240;2022-12-29T07:38:11;10.90;99.90
31837;DHT22;18401;49.344;6.240;2022-12-29T07:40:37;10.80;99.90
31837;DHT22;18401;49.344;6.240;2022-12-29T07:43:02;10.90;99.90
31837;DHT22;18401;49.344;6.240;2022-12-29T07:45:29;10.90;99.90
31837;DHT22;18401;49.344;6.240;2022-12-29T07:47:55;10.90;99.90
31837;DHT22;18401;49.344;6.240;2022-12-29T07:50:21;10.90;99.90
31837;DHT22;18401;49.344;6.240;2022-12-29T07:52:47;10.80;99.90
31837;DHT22;18401;49.344;6.240;2022-12-29T07:55:13;10.80;99.90
31837;DHT22;18401;49.344;6.240;2022-12-29T07:57:39;10.70;99.90
31837;DHT22;18401;49.344;6.240;2022-12-29T08:00:05;10.60;99.90
31837;DHT22;18401;49.344;6.240;2022-12-29T08:02:31;10.50;99.90
31837;DHT22;18401;49.344;6.240;2022-12-29T08:04:57;10.50;99.90
31837;DHT22;18401;49.344;6.240;2022-12-29T08:07:22;10.30;99.90
31837;DHT22;18401;49.344;6.240;2022-12-29T08:09:48;10.30;99.90
31837;DHT22;18401;49.344;6.240;2022-12-29T08:12:14;10.20;99.90
31837;DHT22;18401;49.344;6.240;2022-12-29T08:14:39;10.20;99.90
31837;DHT22;18401;49.344;6.240;2022-12-29T08:17:05;10.10;99.90
31837;DHT22;18401;49.344;6.240;2022-12-29T08:19:31;10.10;99.90
31837;DHT22;18401;49.344;6.240;2022-12-29T08:21:56;10.10;99.90
31837;DHT22;18401;49.344;6.240;2022-12-29T08:24:22;10.00;99.90
31837;DHT22;18401;49.344;6.240;2022-12-29T08:26:48;10.10;99.90
31837;DHT22;18401;49.344;6.240;2022-12-29T08:29:13;10.10;99.90
31837;DHT22;18401;49.344;6.240;2022-12-29T08:31:39;10.10;99.90
31837;DHT22;18401;49.344;6.240;2022-12-29T08:34:05;10.20;99.90
31837;DHT22;18401;49.344;6.240;2022-12-29T08:36:31;10.20;99.90
31837;DHT22;18401;49.344;6.240;2022-12-29T08:38:57;10.10;99.90
31837;DHT22;18401;49.344;6.240;2022-12-29T08:41:23;10.10;99.90
31837;DHT22;18401;49.344;6.240;2022-12-29T08:43:49;10.00;99.90
31837;DHT22;18401;49.344;6.240;2022-12-29T08:46:15;10.00;99.90
31837;DHT22;18401;49.344;6.240;2022-12-29T08:48:42;10.00;99.90
31837;DHT22;18401;49.344;6.240;2022-12-29T08:51:07;10.00;99.90
31837;DHT22;18401;49.344;6.240;2022-12-29T08:53:34;9.90;99.90
31837;DHT22;18401;49.344;6.240;2022-12-29T08:56:00;9.90;99.90
31837;DHT22;18401;49.344;6.240;2022-12-29T08:58:26;9.90;99.90
31837;DHT22;18401;49.344;6.240;2022-12-29T09:00:56;9.90;99.90
31837;DHT22;18401;49.344;6.240;2022-12-29T09:03:23;9.90;99.90
31837;DHT22;18401;49.344;6.240;2022-12-29T09:05:49;9.90;99.90
31837;DHT22;18401;49.344;6.240;2022-12-29T09:08:16;9.90;99.90
31837;DHT22;18401;49.344;6.240;2022-12-29T09:10:42;10.00;99.90
31837;DHT22;18401;49.344;6.240;2022-12-29T09:13:08;10.10;99.90
31837;DHT22;18401;49.344;6.240;2022-12-29T09:15:34;10.20;99.90
31837;DHT22;18401;49.344;6.240;2022-12-29T09:17:59;10.10;99.90
31837;DHT22;18401;49.344;6.240;2022-12-29T09:20:25;10.10;99.90
31837;DHT22;18401;49.344;6.240;2022-12-29T09:22:51;10.10;99.90
31837;DHT22;18401;49.344;6.240;2022-12-29T09:25:17;10.20;99.90
31837;DHT22;18401;49.344;6.240;2022-12-29T09:27:43;10.20;99.90
31837;DHT22;18401;49.344;6.240;2022-12-29T09:30:11;10.20;99.90
31837;DHT22;18401;49.344;6.240;2022-12-29T09:32:37;10.20;99.90
31837;DHT22;18401;49.344;6.240;2022-12-29T09:35:04;10.30;99.90
31837;DHT22;18401;49.344;6.240;2022-12-29T09:37:30;10.40;99.90
31837;DHT22;18401;49.344;6.240;2022-12-29T09:39:55;10.30;99.90
31837;DHT22;18401;49.344;6.240;2022-12-29T09:42:50;10.40;99.90
31837;DHT22;18401;49.344;6.240;2022-12-29T09:45:32;10.40;99.90
31837;DHT22;18401;49.344;6.240;2022-12-29T09:48:00;10.40;99.90
31837;DHT22;18401;49.344;6.240;2022-12-29T09:50:30;10.50;99.90
31837;DHT22;18401;49.344;6.240;2022-12-29T09:55:56;10.50;99.90
31837;DHT22;18401;49.344;6.240;2022-12-29T09:58:41;10.50;99.90
31837;DHT22;18401;49.344;6.240;2022-12-29T10:01:17;10.50;99.90
31837;DHT22;18401;49.344;6.240;2022-12-29T10:03:52;10.50;99.90
31837;DHT22;18401;49.344;6.240;2022-12-29T10:19:39;10.60;99.90
31837;DHT22;18401;49.344;6.240;2022-12-29T10:25:22;10.60;99.90
31837;DHT22;18401;49.344;6.240;2022-12-29T10:27:52;10.70;99.90
31837;DHT22;18401;49.344;6.240;2022-12-29T10:30:19;10.80;99.90
31837;DHT22;18401;49.344;6.240;2022-12-29T10:35:23;10.90;99.90
31837;DHT22;18401;49.344;6.240;2022-12-29T10:38:30;10.90;99.90
31837;DHT22;18401;49.344;6.240;2022-12-29T10:41:24;10.90;99.90
31837;DHT22;18401;49.344;6.240;2022-12-29T10:43:53;10.90;99.90
31837;DHT22;18401;49.344;6.240;2022-12-29T10:46:23;10.90;99.90
31837;DHT22;18401;49.344;6.240;2022-12-29T10:48:49;10.90;99.90
31837;DHT22;18401;49.344;6.240;2022-12-29T10:51:30;11.00;99.90
31837;DHT22;18401;49.344;6.240;2022-12-29T10:54:03;11.00;99.90
31837;DHT22;18401;49.344;6.240;2022-12-29T10:56:40;11.00;99.90
31837;DHT22;18401;49.344;6.240;2022-12-29T10:59:26;11.00;99.90
31837;DHT22;18401;49.344;6.240;2022-12-29T11:02:02;10.90;99.90
31837;DHT22;18401;49.344;6.240;2022-12-29T11:04:57;11.00;99.90
31837;DHT22;18401;49.344;6.240;2022-12-29T11:07:27;11.10;99.90
31837;DHT22;18401;49.344;6.240;2022-12-29T11:09:57;11.00;99.90
31837;DHT22;18401;49.344;6.240;2022-12-29T11:12:40;11.00;99.90
31837;DHT22;18401;49.344;6.240;2022-12-29T11:17:53;11.20;99.90
31837;DHT22;18401;49.344;6.240;2022-12-29T11:22:52;11.50;99.90
31837;DHT22;18401;49.344;6.240;2022-12-29T11:25:18;11.50;99.90
31837;DHT22;18401;49.344;6.240;2022-12-29T11:27:59;11.40;99.90
31837;DHT22;18401;49.344;6.240;2022-12-29T11:30:29;11.40;99.90
31837;DHT22;18401;49.344;6.240;2022-12-29T11:32:56;11.30;99.90
31837;DHT22;18401;49.344;6.240;2022-12-29T11:35:38;11.50;99.90
31837;DHT22;18401;49.344;6.240;2022-12-29T11:38:12;11.40;99.90
31837;DHT22;18401;49.344;6.240;2022-12-29T11:40:41;11.30;99.90
31837;DHT22;18401;49.344;6.240;2022-12-29T11:43:23;11.40;99.90
31837;DHT22;18401;49.344;6.240;2022-12-29T11:45:52;11.20;99.90
31837;DHT22;18401;49.344;6.240;2022-12-29T11:48:20;11.20;99.90
31837;DHT22;18401;49.344;6.240;2022-12-29T11:50:54;11.10;99.90
31837;DHT22;18401;49.344;6.240;2022-12-29T11:53:34;11.20;99.90
31837;DHT22;18401;49.344;6.240;2022-12-29T11:56:08;11.10;99.90
31837;DHT22;18401;49.344;6.240;2022-12-29T11:58:37;11.10;99.90
31837;DHT22;18401;49.344;6.240;2022-12-29T12:03:35;11.00;99.90
31837;DHT22;18401;49.344;6.240;2022-12-29T12:06:03;11.10;99.90
31837;DHT22;18401;49.344;6.240;2022-12-29T12:11:30;11.00;99.90
31837;DHT22;18401;49.344;6.240;2022-12-29T12:14:20;10.90;99.90
31837;DHT22;18401;49.344;6.240;2022-12-29T12:16:53;10.90;99.90
31837;DHT22;18401;49.344;6.240;2022-12-29T12:19:38;10.90;99.90
31837;DHT22;18401;49.344;6.240;2022-12-29T12:22:36;10.80;99.90
31837;DHT22;18401;49.344;6.240;2022-12-29T12:25:23;10.80;99.90
31837;DHT22;18401;49.344;6.240;2022-12-29T12:30:40;10.80;99.90
31837;DHT22;18401;49.344;6.240;2022-12-29T12:33:24;10.90;99.90
31837;DHT22;18401;49.344;6.240;2022-12-29T13:00:13;10.70;99.90
31837;DHT22;18401;49.344;6.240;2022-12-29T13:05:50;10.70;99.90
31837;DHT22;18401;49.344;6.240;2022-12-29T13:13:47;12.40;99.90
31837;DHT22;18401;49.344;6.240;2022-12-29T13:19:34;12.40;99.90
31837;DHT22;18401;49.344;6.240;2022-12-29T13:22:13;12.20;99.90
31837;DHT22;18401;49.344;6.240;2022-12-29T13:30:22;11.50;99.90
31837;DHT22;18401;49.344;6.240;2022-12-29T13:38:38;11.20;99.90
31837;DHT22;18401;49.344;6.240;2022-12-29T13:41:33;11.20;99.90
31837;DHT22;18401;49.344;6.240;2022-12-29T13:44:02;11.10;99.90
31837;DHT22;18401;49.344;6.240;2022-12-29T13:46:36;11.00;99.90
31837;DHT22;18401;49.344;6.240;2022-12-29T13:49:20;10.80;99.90
31837;DHT22;18401;49.344;6.240;2022-12-29T13:51:53;10.80;99.90
31837;DHT22;18401;49.344;6.240;2022-12-29T13:54:40;11.00;99.90
31837;DHT22;18401;49.344;6.240;2022-12-29T13:57:44;11.40;99.90
31837;DHT22;18401;49.344;6.240;2022-12-29T14:00:21;11.40;99.90
31837;DHT22;18401;49.344;6.240;2022-12-29T14:05:32;11.80;99.90
31837;DHT22;18401;49.344;6.240;2022-12-29T14:08:04;11.80;99.90
31837;DHT22;18401;49.344;6.240;2022-12-29T14:10:38;11.40;99.90
31837;DHT22;18401;49.344;6.240;2022-12-29T14:15:40;10.80;99.90
31837;DHT22;18401;49.344;6.240;2022-12-29T14:18:19;10.60;99.90
31837;DHT22;18401;49.344;6.240;2022-12-29T14:23:45;10.40;99.90
31837;DHT22;18401;49.344;6.240;2022-12-29T14:26:35;10.30;99.90
31837;DHT22;18401;49.344;6.240;2022-12-29T14:31:41;10.20;99.90
31837;DHT22;18401;49.344;6.240;2022-12-29T14:36:55;10.10;99.90
31837;DHT22;18401;49.344;6.240;2022-12-29T14:39:43;10.10;99.90
31837;DHT22;18401;49.344;6.240;2022-12-29T14:47:43;9.90;99.90
31837;DHT22;18401;49.344;6.240;2022-12-29T14:50:40;9.90;99.90
31837;DHT22;18401;49.344;6.240;2022-12-29T14:53:10;9.80;99.90
31837;DHT22;18401;49.344;6.240;2022-12-29T14:55:57;9.70;99.90
31837;DHT22;18401;49.344;6.240;2022-12-29T14:58:28;9.90;99.90
31837;DHT22;18401;49.344;6.240;2022-12-29T15:00:55;9.90;99.90
31837;DHT22;18401;49.344;6.240;2022-12-29T15:03:30;9.70;99.90
31837;DHT22;18401;49.344;6.240;2022-12-29T15:06:11;9.80;99.90
31837;DHT22;18401;49.344;6.240;2022-12-29T15:08:49;9.70;99.90
31837;DHT22;18401;49.344;6.240;2022-12-29T15:13:47;9.40;99.90
31837;DHT22;18401;49.344;6.240;2022-12-29T15:16:31;9.30;99.90
31837;DHT22;18401;49.344;6.240;2022-12-29T15:18:57;9.10;99.90
31837;DHT22;18401;49.344;6.240;2022-12-29T15:21:26;9.20;99.90
31837;DHT22;18401;49.344;6.240;2022-12-29T15:23:52;9.10;99.90
31837;DHT22;18401;49.344;6.240;2022-12-29T15:26:19;9.10;99.90
31837;DHT22;18401;49.344;6.240;2022-12-29T15:28:52;9.10;99.90
31837;DHT22;18401;49.344;6.240;2022-12-29T15:31:26;8.90;99.90
31837;DHT22;18401;49.344;6.240;2022-12-29T15:34:02;9.00;99.90
31837;DHT22;18401;49.344;6.240;2022-12-29T15:36:29;8.90;99.90
31837;DHT22;18401;49.344;6.240;2022-12-29T15:39:20;8.90;99.90
31837;DHT22;18401;49.344;6.240;2022-12-29T15:41:55;9.10;99.90
31837;DHT22;18401;49.344;6.240;2022-12-29T15:47:06;8.90;99.90
31837;DHT22;18401;49.344;6.240;2022-12-29T15:49:35;9.10;99.90
31837;DHT22;18401;49.344;6.240;2022-12-29T15:52:06;9.10;99.90
31837;DHT22;18401;49.344;6.240;2022-12-29T15:54:33;9.00;99.90
31837;DHT22;18401;49.344;6.240;2022-12-29T15:56:59;8.90;99.90
31837;DHT22;18401;49.344;6.240;2022-12-29T15:59:29;9.00;99.90
31837;DHT22;18401;49.344;6.240;2022-12-29T16:01:57;9.10;99.90
31837;DHT22;18401;49.344;6.240;2022-12-29T16:04:25;9.00;99.90
31837;DHT22;18401;49.344;6.240;2022-12-29T16:06:59;9.00;99.90
31837;DHT22;18401;49.344;6.240;2022-12-29T16:09:41;8.90;99.90
31837;DHT22;18401;49.344;6.240;2022-12-29T16:12:15;8.60;99.90
31837;DHT22;18401;49.344;6.240;2022-12-29T16:14:45;8.70;99.90
31837;DHT22;18401;49.344;6.240;2022-12-29T16:17:17;8.50;99.90
31837;DHT22;18401;49.344;6.240;2022-12-29T16:19:52;8.70;99.90
31837;DHT22;18401;49.344;6.240;2022-12-29T16:25:02;8.30;99.90
31837;DHT22;18401;49.344;6.240;2022-12-29T16:27:54;8.20;99.90
31837;DHT22;18401;49.344;6.240;2022-12-29T16:30:23;8.20;99.90
31837;DHT22;18401;49.344;6.240;2022-12-29T16:32:51;8.20;99.90
31837;DHT22;18401;49.344;6.240;2022-12-29T16:37:45;7.90;99.90
31837;DHT22;18401;49.344;6.240;2022-12-29T16:47:48;7.90;99.90
31837;DHT22;18401;49.344;6.240;2022-12-29T16:50:19;8.00;99.90
31837;DHT22;18401;49.344;6.240;2022-12-29T16:52:48;7.90;99.90
31837;DHT22;18401;49.344;6.240;2022-12-29T16:55:17;7.90;99.90
31837;DHT22;18401;49.344;6.240;2022-12-29T16:57:44;8.00;99.90
31837;DHT22;18401;49.344;6.240;2022-12-29T17:00:36;8.20;99.90
31837;DHT22;18401;49.344;6.240;2022-12-29T17:03:03;8.20;99.90
31837;DHT22;18401;49.344;6.240;2022-12-29T17:05:29;8.40;99.90
31837;DHT22;18401;49.344;6.240;2022-12-29T17:07:54;8.60;99.90
31837;DHT22;18401;49.344;6.240;2022-12-29T17:10:26;8.60;99.90
31837;DHT22;18401;49.344;6.240;2022-12-29T17:13:12;8.50;99.90
31837;DHT22;18401;49.344;6.240;2022-12-29T17:15:38;8.50;99.90
31837;DHT22;18401;49.344;6.240;2022-12-29T17:18:03;8.60;99.90
31837;DHT22;18401;49.344;6.240;2022-12-29T17:20:30;8.60;99.90
31837;DHT22;18401;49.344;6.240;2022-12-29T17:22:57;8.60;99.90
31837;DHT22;18401;49.344;6.240;2022-12-29T17:25:30;8.50;99.90
31837;DHT22;18401;49.344;6.240;2022-12-29T17:27:59;8.40;99.90
31837;DHT22;18401;49.344;6.240;2022-12-29T17:30:27;8.30;99.90
31837;DHT22;18401;49.344;6.240;2022-12-29T17:32:57;8.10;99.90
31837;DHT22;18401;49.344;6.240;2022-12-29T17:35:23;8.00;99.90
31837;DHT22;18401;49.344;6.240;2022-12-29T17:37:49;7.80;99.90
31837;DHT22;18401;49.344;6.240;2022-12-29T17:42:48;7.80;99.90
31837;DHT22;18401;49.344;6.240;2022-12-29T17:45:16;7.90;99.90
31837;DHT22;18401;49.344;6.240;2022-12-29T17:47:43;8.00;99.90
31837;DHT22;18401;49.344;6.240;2022-12-29T17:50:11;8.10;99.90
31837;DHT22;18401;49.344;6.240;2022-12-29T17:52:38;8.30;99.90
31837;DHT22;18401;49.344;6.240;2022-12-29T17:55:04;8.30;99.90
31837;DHT22;18401;49.344;6.240;2022-12-29T17:57:31;8.30;99.90
31837;DHT22;18401;49.344;6.240;2022-12-29T17:59:56;8.30;99.90
31837;DHT22;18401;49.344;6.240;2022-12-29T18:02:30;8.40;99.90
31837;DHT22;18401;49.344;6.240;2022-12-29T18:04:57;8.50;99.90
31837;DHT22;18401;49.344;6.240;2022-12-29T18:07:27;8.50;99.90
31837;DHT22;18401;49.344;6.240;2022-12-29T18:09:53;8.60;99.90
31837;DHT22;18401;49.344;6.240;2022-12-29T18:12:38;8.70;99.90
31837;DHT22;18401;49.344;6.240;2022-12-29T18:15:05;8.70;99.90
31837;DHT22;18401;49.344;6.240;2022-12-29T18:17:34;8.80;99.90
31837;DHT22;18401;49.344;6.240;2022-12-29T18:20:00;8.70;99.90
31837;DHT22;18401;49.344;6.240;2022-12-29T18:22:25;8.80;99.90
31837;DHT22;18401;49.344;6.240;2022-12-29T18:24:53;8.90;99.90
31837;DHT22;18401;49.344;6.240;2022-12-29T18:27:19;9.00;99.90
31837;DHT22;18401;49.344;6.240;2022-12-29T18:29:47;9.00;99.90
31837;DHT22;18401;49.344;6.240;2022-12-29T18:32:14;8.90;99.90
31837;DHT22;18401;49.344;6.240;2022-12-29T18:34:41;8.90;99.90
31837;DHT22;18401;49.344;6.240;2022-12-29T18:37:08;8.80;99.90